sensor_id;sensor_type;location;lat;lon;timestamp;temperature;humidity
23783;DHT22;12071;50.850;4.446;2022-08-25T00:00:20;23.50;1.00
23783;DHT22;12071;50.850;4.446;2022-08-25T00:02:46;23.50;1.00
23783;DHT22;12071;50.850;4.446;2022-08-25T00:05:12;23.30;1.00
23783;DHT22;12071;50.850;4.446;2022-08-25T00:07:38;23.30;1.00
23783;DHT22;12071;50.850;4.446;2022-08-25T00:10:05;23.30;1.00
23783;DHT22;12071;50.850;4.446;2022-08-25T00:12:32;23.40;1.00
23783;DHT22;12071;50.850;4.446;2022-08-25T00:14:57;23.50;1.00
23783;DHT22;12071;50.850;4.446;2022-08-25T00:17:23;23.50;1.00
23783;DHT22;12071;50.850;4.446;2022-08-25T00:19:49;23.40;1.00
23783;DHT22;12071;50.850;4.446;2022-08-25T00:22:14;23.00;1.00
23783;DHT22;12071;50.850;4.446;2022-08-25T00:24:40;23.00;1.00
23783;DHT22;12071;50.850;4.446;2022-08-25T00:27:06;22.90;1.00
23783;DHT22;12071;50.850;4.446;2022-08-25T00:29:32;22.90;1.00
23783;DHT22;12071;50.850;4.446;2022-08-25T00:31:58;23.00;1.00
23783;DHT22;12071;50.850;4.446;2022-08-25T00:34:28;23.10;1.00
23783;DHT22;12071;50.850;4.446;2022-08-25T00:36:55;22.90;1.00
23783;DHT22;12071;50.850;4.446;2022-08-25T00:39:22;22.90;1.00
23783;DHT22;12071;50.850;4.446;2022-08-25T00:41:50;22.80;1.00
23783;DHT22;12071;50.850;4.446;2022-08-25T00:44:16;22.80;1.00
23783;DHT22;12071;50.850;4.446;2022-08-25T00:46:46;22.70;1.00
23783;DHT22;12071;50.850;4.446;2022-08-25T00:49:16;22.70;1.00
23783;DHT22;12071;50.850;4.446;2022-08-25T00:51:51;22.80;1.00
23783;DHT22;12071;50.850;4.446;2022-08-25T00:54:22;22.90;1.00
23783;DHT22;12071;50.850;4.446;2022-08-25T00:56:50;22.60;1.00
23783;DHT22;12071;50.850;4.446;2022-08-25T00:59:19;22.70;1.00
23783;DHT22;12071;50.850;4.446;2022-08-25T01:01:45;22.60;1.00
23783;DHT22;12071;50.850;4.446;2022-08-25T01:04:11;22.50;1.00
23783;DHT22;12071;50.850;4.446;2022-08-25T01:06:40;22.50;1.00
23783;DHT22;12071;50.850;4.446;2022-08-25T01:09:08;22.70;1.00
23783;DHT22;12071;50.850;4.446;2022-08-25T01:11:34;22.70;1.00
23783;DHT22;12071;50.850;4.446;2022-08-25T01:14:00;22.70;1.00
23783;DHT22;12071;50.850;4.446;2022-08-25T01:16:35;22.50;1.00
23783;DHT22;12071;50.850;4.446;2022-08-25T01:19:01;22.40;1.00
23783;DHT22;12071;50.850;4.446;2022-08-25T01:21:29;22.10;1.00
23783;DHT22;12071;50.850;4.446;2022-08-25T01:23:57;22.30;1.00
23783;DHT22;12071;50.850;4.446;2022-08-25T01:26:29;22.30;1.00
23783;DHT22;12071;50.850;4.446;2022-08-25T01:28:57;22.40;1.00
23783;DHT22;12071;50.850;4.446;2022-08-25T01:31:42;22.40;1.00
23783;DHT22;12071;50.850;4.446;2022-08-25T01:34:09;22.20;1.00
23783;DHT22;12071;50.850;4.446;2022-08-25T01:36:37;22.10;1.00
23783;DHT22;12071;50.850;4.446;2022-08-25T01:39:03;22.00;1.00
23783;DHT22;12071;50.850;4.446;2022-08-25T01:41:39;21.90;1.00
23783;DHT22;12071;50.850;4.446;2022-08-25T01:44:06;22.10;1.00
23783;DHT22;12071;50.850;4.446;2022-08-25T01:46:32;22.00;1.00
23783;DHT22;12071;50.850;4.446;2022-08-25T01:49:02;22.00;1.00
23783;DHT22;12071;50.850;4.446;2022-08-25T01:51:33;22.00;1.00
23783;DHT22;12071;50.850;4.446;2022-08-25T01:53:59;21.90;1.00
23783;DHT22;12071;50.850;4.446;2022-08-25T01:56:24;21.90;1.00
23783;DHT22;12071;50.850;4.446;2022-08-25T01:58:50;21.80;1.00
23783;DHT22;12071;50.850;4.446;2022-08-25T02:01:20;21.90;1.00
23783;DHT22;12071;50.850;4.446;2022-08-25T02:03:49;22.10;1.00
23783;DHT22;12071;50.850;4.446;2022-08-25T02:06:19;22.10;1.00
23783;DHT22;12071;50.850;4.446;2022-08-25T02:08:48;22.10;1.00
23783;DHT22;12071;50.850;4.446;2022-08-25T02:11:14;22.00;1.00
23783;DHT22;12071;50.850;4.446;2022-08-25T02:13:41;21.70;1.00
23783;DHT22;12071;50.850;4.446;2022-08-25T02:16:08;21.50;1.00
23783;DHT22;12071;50.850;4.446;2022-08-25T02:18:35;21.30;1.00
23783;DHT22;12071;50.850;4.446;2022-08-25T02:21:01;21.20;1.00
23783;DHT22;12071;50.850;4.446;2022-08-25T02:23:27;21.20;1.00
23783;DHT22;12071;50.850;4.446;2022-08-25T02:25:53;21.40;1.00
23783;DHT22;12071;50.850;4.446;2022-08-25T02:28:18;21.40;1.00
23783;DHT22;12071;50.850;4.446;2022-08-25T02:30:44;21.40;1.00
23783;DHT22;12071;50.850;4.446;2022-08-25T02:33:10;21.40;1.00
23783;DHT22;12071;50.850;4.446;2022-08-25T02:35:36;21.30;1.00
23783;DHT22;12071;50.850;4.446;2022-08-25T02:38:04;21.30;1.00
23783;DHT22;12071;50.850;4.446;2022-08-25T02:40:30;21.30;1.00
23783;DHT22;12071;50.850;4.446;2022-08-25T02:42:55;21.40;1.00
23783;DHT22;12071;50.850;4.446;2022-08-25T02:45:22;21.30;1.00
23783;DHT22;12071;50.850;4.446;2022-08-25T02:47:48;21.30;1.00
23783;DHT22;12071;50.850;4.446;2022-08-25T02:50:14;21.20;1.00
23783;DHT22;12071;50.850;4.446;2022-08-25T02:52:39;21.20;1.00
23783;DHT22;12071;50.850;4.446;2022-08-25T02:55:08;21.20;1.00
23783;DHT22;12071;50.850;4.446;2022-08-25T02:57:34;21.20;1.00
23783;DHT22;12071;50.850;4.446;2022-08-25T03:00:00;21.10;1.00
23783;DHT22;12071;50.850;4.446;2022-08-25T03:02:26;21.10;1.00
23783;DHT22;12071;50.850;4.446;2022-08-25T03:04:53;21.00;1.00
23783;DHT22;12071;50.850;4.446;2022-08-25T03:07:19;21.00;1.00
23783;DHT22;12071;50.850;4.446;2022-08-25T03:09:46;20.90;1.00
23783;DHT22;12071;50.850;4.446;2022-08-25T03:12:11;20.70;1.00
23783;DHT22;12071;50.850;4.446;2022-08-25T03:14:38;20.70;1.00
23783;DHT22;12071;50.850;4.446;2022-08-25T03:17:08;20.80;1.00
23783;DHT22;12071;50.850;4.446;2022-08-25T03:19:34;20.80;1.00
23783;DHT22;12071;50.850;4.446;2022-08-25T03:21:59;21.00;1.00
23783;DHT22;12071;50.850;4.446;2022-08-25T03:24:25;20.90;1.00
23783;DHT22;12071;50.850;4.446;2022-08-25T03:26:52;20.90;1.00
23783;DHT22;12071;50.850;4.446;2022-08-25T03:29:18;20.90;1.00
23783;DHT22;12071;50.850;4.446;2022-08-25T03:31:44;20.80;1.00
23783;DHT22;12071;50.850;4.446;2022-08-25T03:34:12;20.80;1.00
23783;DHT22;12071;50.850;4.446;2022-08-25T03:36:37;20.70;1.00
23783;DHT22;12071;50.850;4.446;2022-08-25T03:39:04;20.60;1.00
23783;DHT22;12071;50.850;4.446;2022-08-25T03:41:30;20.70;1.00
23783;DHT22;12071;50.850;4.446;2022-08-25T03:44:00;20.80;1.00
23783;DHT22;12071;50.850;4.446;2022-08-25T03:46:29;20.90;1.00
23783;DHT22;12071;50.850;4.446;2022-08-25T03:48:56;20.60;1.00
23783;DHT22;12071;50.850;4.446;2022-08-25T03:51:24;20.40;1.00
23783;DHT22;12071;50.850;4.446;2022-08-25T03:53:50;20.40;1.00
23783;DHT22;12071;50.850;4.446;2022-08-25T03:56:16;20.40;1.00
23783;DHT22;12071;50.850;4.446;2022-08-25T03:58:42;20.50;1.00
23783;DHT22;12071;50.850;4.446;2022-08-25T04:01:08;20.60;1.00
23783;DHT22;12071;50.850;4.446;2022-08-25T04:03:34;20.80;1.00
23783;DHT22;12071;50.850;4.446;2022-08-25T04:06:01;20.80;1.00
23783;DHT22;12071;50.850;4.446;2022-08-25T04:08:27;20.70;1.00
23783;DHT22;12071;50.850;4.446;2022-08-25T04:10:53;20.50;1.00
23783;DHT22;12071;50.850;4.446;2022-08-25T04:13:19;20.60;1.00
23783;DHT22;12071;50.850;4.446;2022-08-25T04:15:45;20.60;1.00
23783;DHT22;12071;50.850;4.446;2022-08-25T04:18:10;20.50;1.00
23783;DHT22;12071;50.850;4.446;2022-08-25T04:20:38;20.50;1.00
23783;DHT22;12071;50.850;4.446;2022-08-25T04:23:04;20.30;1.00
23783;DHT22;12071;50.850;4.446;2022-08-25T04:25:30;20.40;1.00
23783;DHT22;12071;50.850;4.446;2022-08-25T04:27:55;20.50;1.00
23783;DHT22;12071;50.850;4.446;2022-08-25T04:30:22;20.60;1.00
23783;DHT22;12071;50.850;4.446;2022-08-25T04:32:48;20.80;1.00
23783;DHT22;12071;50.850;4.446;2022-08-25T04:35:14;20.70;1.00
23783;DHT22;12071;50.850;4.446;2022-08-25T04:37:40;20.80;1.00
23783;DHT22;12071;50.850;4.446;2022-08-25T04:40:06;20.60;1.00
23783;DHT22;12071;50.850;4.446;2022-08-25T04:42:32;20.60;1.00
23783;DHT22;12071;50.850;4.446;2022-08-25T04:44:58;20.50;1.00
23783;DHT22;12071;50.850;4.446;2022-08-25T04:47:26;20.50;1.00
23783;DHT22;12071;50.850;4.446;2022-08-25T04:49:52;20.60;1.00
23783;DHT22;12071;50.850;4.446;2022-08-25T04:52:18;20.50;1.00
23783;DHT22;12071;50.850;4.446;2022-08-25T04:54:45;20.50;1.00
23783;DHT22;12071;50.850;4.446;2022-08-25T04:57:10;20.50;1.00
23783;DHT22;12071;50.850;4.446;2022-08-25T04:59:36;20.50;1.00
23783;DHT22;12071;50.850;4.446;2022-08-25T05:02:03;20.50;1.00
23783;DHT22;12071;50.850;4.446;2022-08-25T05:04:30;20.50;1.00
23783;DHT22;12071;50.850;4.446;2022-08-25T05:06:56;20.50;1.00
23783;DHT22;12071;50.850;4.446;2022-08-25T05:09:22;20.50;1.00
23783;DHT22;12071;50.850;4.446;2022-08-25T05:11:48;20.40;1.00
23783;DHT22;12071;50.850;4.446;2022-08-25T05:14:14;20.20;1.00
23783;DHT22;12071;50.850;4.446;2022-08-25T05:16:42;20.10;1.00
23783;DHT22;12071;50.850;4.446;2022-08-25T05:19:08;20.20;1.00
23783;DHT22;12071;50.850;4.446;2022-08-25T05:21:34;20.40;1.00
23783;DHT22;12071;50.850;4.446;2022-08-25T05:24:00;20.60;1.00
23783;DHT22;12071;50.850;4.446;2022-08-25T05:26:28;20.70;1.00
23783;DHT22;12071;50.850;4.446;2022-08-25T05:28:55;20.80;1.00
23783;DHT22;12071;50.850;4.446;2022-08-25T05:31:23;20.70;1.00
23783;DHT22;12071;50.850;4.446;2022-08-25T05:33:50;20.70;1.00
23783;DHT22;12071;50.850;4.446;2022-08-25T05:36:17;20.60;1.00
23783;DHT22;12071;50.850;4.446;2022-08-25T05:38:44;20.50;1.00
23783;DHT22;12071;50.850;4.446;2022-08-25T05:41:13;20.50;1.00
23783;DHT22;12071;50.850;4.446;2022-08-25T05:43:44;20.70;1.00
23783;DHT22;12071;50.850;4.446;2022-08-25T05:46:12;20.80;1.00
23783;DHT22;12071;50.850;4.446;2022-08-25T05:48:38;21.00;1.00
23783;DHT22;12071;50.850;4.446;2022-08-25T05:51:06;21.00;1.00
23783;DHT22;12071;50.850;4.446;2022-08-25T05:53:33;21.10;1.00
23783;DHT22;12071;50.850;4.446;2022-08-25T05:55:59;21.10;1.00
23783;DHT22;12071;50.850;4.446;2022-08-25T05:58:26;21.30;1.00
23783;DHT22;12071;50.850;4.446;2022-08-25T06:00:53;21.30;1.00
23783;DHT22;12071;50.850;4.446;2022-08-25T06:03:19;21.50;1.00
23783;DHT22;12071;50.850;4.446;2022-08-25T06:05:45;21.60;1.00
23783;DHT22;12071;50.850;4.446;2022-08-25T06:08:10;21.70;1.00
23783;DHT22;12071;50.850;4.446;2022-08-25T06:10:36;21.80;99.90
23783;DHT22;12071;50.850;4.446;2022-08-25T06:13:03;21.80;99.90
23783;DHT22;12071;50.850;4.446;2022-08-25T06:15:29;22.00;1.00
23783;DHT22;12071;50.850;4.446;2022-08-25T06:17:54;22.00;99.90
23783;DHT22;12071;50.850;4.446;2022-08-25T06:20:26;22.10;99.90
23783;DHT22;12071;50.850;4.446;2022-08-25T06:22:53;22.20;99.90
23783;DHT22;12071;50.850;4.446;2022-08-25T06:25:20;22.30;99.90
23783;DHT22;12071;50.850;4.446;2022-08-25T06:27:47;22.30;99.90
23783;DHT22;12071;50.850;4.446;2022-08-25T06:30:15;22.40;99.90
23783;DHT22;12071;50.850;4.446;2022-08-25T06:32:42;22.50;99.90
23783;DHT22;12071;50.850;4.446;2022-08-25T06:35:11;22.60;99.90
23783;DHT22;12071;50.850;4.446;2022-08-25T06:37:38;22.60;99.90
23783;DHT22;12071;50.850;4.446;2022-08-25T06:40:05;22.70;99.90
23783;DHT22;12071;50.850;4.446;2022-08-25T06:42:31;22.80;99.90
23783;DHT22;12071;50.850;4.446;2022-08-25T06:44:57;23.00;99.90
23783;DHT22;12071;50.850;4.446;2022-08-25T06:47:23;22.90;99.90
23783;DHT22;12071;50.850;4.446;2022-08-25T06:49:48;22.80;99.90
23783;DHT22;12071;50.850;4.446;2022-08-25T06:52:14;23.10;99.90
23783;DHT22;12071;50.850;4.446;2022-08-25T06:54:41;23.20;99.90
23783;DHT22;12071;50.850;4.446;2022-08-25T06:57:07;23.30;99.90
23783;DHT22;12071;50.850;4.446;2022-08-25T06:59:34;23.30;99.90
23783;DHT22;12071;50.850;4.446;2022-08-25T07:02:01;23.20;99.90
23783;DHT22;12071;50.850;4.446;2022-08-25T07:04:27;23.40;99.90
23783;DHT22;12071;50.850;4.446;2022-08-25T07:06:53;23.60;99.90
23783;DHT22;12071;50.850;4.446;2022-08-25T07:09:18;23.60;99.90
23783;DHT22;12071;50.850;4.446;2022-08-25T07:11:45;23.80;99.90
23783;DHT22;12071;50.850;4.446;2022-08-25T07:14:12;23.90;99.90
23783;DHT22;12071;50.850;4.446;2022-08-25T07:16:39;24.00;70.00
23783;DHT22;12071;50.850;4.446;2022-08-25T07:19:06;24.30;44.70
23783;DHT22;12071;50.850;4.446;2022-08-25T07:21:34;24.40;98.70
23783;DHT22;12071;50.850;4.446;2022-08-25T07:24:03;24.50;1.00
23783;DHT22;12071;50.850;4.446;2022-08-25T07:26:30;24.50;1.00
23783;DHT22;12071;50.850;4.446;2022-08-25T07:28:59;24.70;99.90
23783;DHT22;12071;50.850;4.446;2022-08-25T07:31:25;24.70;99.90
23783;DHT22;12071;50.850;4.446;2022-08-25T07:33:50;25.00;99.90
23783;DHT22;12071;50.850;4.446;2022-08-25T07:36:35;25.20;99.90
23783;DHT22;12071;50.850;4.446;2022-08-25T07:39:01;25.10;99.90
23783;DHT22;12071;50.850;4.446;2022-08-25T07:41:31;25.00;99.90
23783;DHT22;12071;50.850;4.446;2022-08-25T07:44:00;25.20;99.90
23783;DHT22;12071;50.850;4.446;2022-08-25T07:46:26;25.30;56.00
23783;DHT22;12071;50.850;4.446;2022-08-25T07:48:51;25.30;18.90
23783;DHT22;12071;50.850;4.446;2022-08-25T07:51:17;25.60;99.90
23783;DHT22;12071;50.850;4.446;2022-08-25T07:53:43;25.60;99.90
23783;DHT22;12071;50.850;4.446;2022-08-25T07:56:11;25.60;99.90
23783;DHT22;12071;50.850;4.446;2022-08-25T07:58:38;25.40;99.90
23783;DHT22;12071;50.850;4.446;2022-08-25T08:01:05;25.70;99.90
23783;DHT22;12071;50.850;4.446;2022-08-25T08:03:31;25.90;99.90
23783;DHT22;12071;50.850;4.446;2022-08-25T08:05:59;25.70;99.90
23783;DHT22;12071;50.850;4.446;2022-08-25T08:08:26;25.50;1.00
23783;DHT22;12071;50.850;4.446;2022-08-25T08:10:51;25.60;1.00
23783;DHT22;12071;50.850;4.446;2022-08-25T08:13:17;25.70;1.00
23783;DHT22;12071;50.850;4.446;2022-08-25T08:15:43;25.90;99.90
23783;DHT22;12071;50.850;4.446;2022-08-25T08:18:09;26.00;99.90
23783;DHT22;12071;50.850;4.446;2022-08-25T08:20:35;25.90;99.90
23783;DHT22;12071;50.850;4.446;2022-08-25T08:23:02;26.10;99.90
23783;DHT22;12071;50.850;4.446;2022-08-25T08:25:28;26.60;98.20
23783;DHT22;12071;50.850;4.446;2022-08-25T08:27:55;26.70;99.90
23783;DHT22;12071;50.850;4.446;2022-08-25T08:30:21;26.90;99.90
23783;DHT22;12071;50.850;4.446;2022-08-25T08:32:47;26.80;99.90
23783;DHT22;12071;50.850;4.446;2022-08-25T08:35:14;27.00;99.90
23783;DHT22;12071;50.850;4.446;2022-08-25T08:37:46;27.10;99.90
23783;DHT22;12071;50.850;4.446;2022-08-25T08:40:14;27.30;99.90
23783;DHT22;12071;50.850;4.446;2022-08-25T08:43:06;27.40;99.90
23783;DHT22;12071;50.850;4.446;2022-08-25T08:45:49;27.50;8.90
23783;DHT22;12071;50.850;4.446;2022-08-25T08:51:12;27.50;75.10
23783;DHT22;12071;50.850;4.446;2022-08-25T08:53:47;27.50;99.90
23783;DHT22;12071;50.850;4.446;2022-08-25T08:56:16;27.50;99.90
23783;DHT22;12071;50.850;4.446;2022-08-25T08:58:54;27.90;1.00
23783;DHT22;12071;50.850;4.446;2022-08-25T09:01:47;27.90;99.90
23783;DHT22;12071;50.850;4.446;2022-08-25T09:06:49;28.70;99.90
23783;DHT22;12071;50.850;4.446;2022-08-25T09:09:24;28.60;99.90
23783;DHT22;12071;50.850;4.446;2022-08-25T09:15:29;28.60;99.90
23783;DHT22;12071;50.850;4.446;2022-08-25T09:21:35;28.70;99.90
23783;DHT22;12071;50.850;4.446;2022-08-25T09:26:49;28.80;99.90
23783;DHT22;12071;50.850;4.446;2022-08-25T09:29:24;29.20;1.00
23783;DHT22;12071;50.850;4.446;2022-08-25T09:31:56;29.00;1.00
23783;DHT22;12071;50.850;4.446;2022-08-25T09:34:29;29.50;1.00
23783;DHT22;12071;50.850;4.446;2022-08-25T09:36:56;29.50;99.90
23783;DHT22;12071;50.850;4.446;2022-08-25T09:39:22;29.60;1.00
23783;DHT22;12071;50.850;4.446;2022-08-25T09:41:54;29.80;99.90
23783;DHT22;12071;50.850;4.446;2022-08-25T09:44:31;29.90;99.90
23783;DHT22;12071;50.850;4.446;2022-08-25T09:47:05;29.90;99.90
23783;DHT22;12071;50.850;4.446;2022-08-25T09:49:39;30.00;99.90
23783;DHT22;12071;50.850;4.446;2022-08-25T09:52:30;30.10;99.90
23783;DHT22;12071;50.850;4.446;2022-08-25T09:55:30;30.50;99.90
23783;DHT22;12071;50.850;4.446;2022-08-25T09:57:56;30.70;99.90
23783;DHT22;12071;50.850;4.446;2022-08-25T10:00:24;30.60;93.50
23783;DHT22;12071;50.850;4.446;2022-08-25T10:05:58;30.80;1.00
23783;DHT22;12071;50.850;4.446;2022-08-25T10:08:33;30.90;1.00
23783;DHT22;12071;50.850;4.446;2022-08-25T10:11:47;30.90;1.00
23783;DHT22;12071;50.850;4.446;2022-08-25T10:13:49;31.10;99.90
23783;DHT22;12071;50.850;4.446;2022-08-25T10:16:28;31.20;99.90
23783;DHT22;12071;50.850;4.446;2022-08-25T10:19:26;31.00;99.90
23783;DHT22;12071;50.850;4.446;2022-08-25T10:22:06;31.30;99.90
23783;DHT22;12071;50.850;4.446;2022-08-25T10:24:33;31.60;99.90
23783;DHT22;12071;50.850;4.446;2022-08-25T10:35:22;31.90;99.90
23783;DHT22;12071;50.850;4.446;2022-08-25T10:38:10;31.70;99.90
23783;DHT22;12071;50.850;4.446;2022-08-25T10:40:51;31.70;99.90
23783;DHT22;12071;50.850;4.446;2022-08-25T10:49:00;32.40;99.90
23783;DHT22;12071;50.850;4.446;2022-08-25T10:51:32;32.70;99.90
23783;DHT22;12071;50.850;4.446;2022-08-25T10:56:34;32.20;99.90
23783;DHT22;12071;50.850;4.446;2022-08-25T11:06:56;32.80;50.70
23783;DHT22;12071;50.850;4.446;2022-08-25T11:09:28;32.40;90.30
23783;DHT22;12071;50.850;4.446;2022-08-25T11:11:58;32.80;91.40
23783;DHT22;12071;50.850;4.446;2022-08-25T11:14:40;33.00;82.80
23783;DHT22;12071;50.850;4.446;2022-08-25T11:19:53;33.30;68.20
23783;DHT22;12071;50.850;4.446;2022-08-25T11:22:33;33.30;54.50
23783;DHT22;12071;50.850;4.446;2022-08-25T11:25:18;33.20;36.00
23783;DHT22;12071;50.850;4.446;2022-08-25T11:30:42;32.50;56.80
23783;DHT22;12071;50.850;4.446;2022-08-25T11:33:15;32.40;99.90
23783;DHT22;12071;50.850;4.446;2022-08-25T11:35:49;32.30;94.30
23783;DHT22;12071;50.850;4.446;2022-08-25T11:41:04;32.60;98.30
23783;DHT22;12071;50.850;4.446;2022-08-25T11:49:19;33.00;77.00
23783;DHT22;12071;50.850;4.446;2022-08-25T11:51:49;33.00;76.70
23783;DHT22;12071;50.850;4.446;2022-08-25T11:54:33;33.00;99.90
23783;DHT22;12071;50.850;4.446;2022-08-25T11:57:04;33.50;22.20
23783;DHT22;12071;50.850;4.446;2022-08-25T12:04:55;33.70;17.40
23783;DHT22;12071;50.850;4.446;2022-08-25T12:07:23;33.70;11.90
23783;DHT22;12071;50.850;4.446;2022-08-25T12:24:03;33.40;8.60
23783;DHT22;12071;50.850;4.446;2022-08-25T12:26:51;33.30;17.10
23783;DHT22;12071;50.850;4.446;2022-08-25T12:29:42;33.90;4.60
23783;DHT22;12071;50.850;4.446;2022-08-25T12:35:02;34.60;1.00
23783;DHT22;12071;50.850;4.446;2022-08-25T12:37:33;34.90;1.00
23783;DHT22;12071;50.850;4.446;2022-08-25T12:40:02;34.90;1.00
23783;DHT22;12071;50.850;4.446;2022-08-25T12:45:35;34.30;1.00
23783;DHT22;12071;50.850;4.446;2022-08-25T12:51:03;34.50;1.00
23783;DHT22;12071;50.850;4.446;2022-08-25T12:53:40;34.60;1.00
23783;DHT22;12071;50.850;4.446;2022-08-25T12:56:25;33.90;1.00
23783;DHT22;12071;50.850;4.446;2022-08-25T13:01:57;34.90;1.00
23783;DHT22;12071;50.850;4.446;2022-08-25T13:07:48;35.20;1.00
23783;DHT22;12071;50.850;4.446;2022-08-25T13:10:50;35.10;1.00
23783;DHT22;12071;50.850;4.446;2022-08-25T13:16:07;35.70;1.00
23783;DHT22;12071;50.850;4.446;2022-08-25T13:18:36;35.50;1.00
23783;DHT22;12071;50.850;4.446;2022-08-25T13:23:43;34.70;1.00
23783;DHT22;12071;50.850;4.446;2022-08-25T13:26:31;35.00;11.20
23783;DHT22;12071;50.850;4.446;2022-08-25T13:29:11;35.00;4.20
23783;DHT22;12071;50.850;4.446;2022-08-25T13:31:50;34.80;8.50
23783;DHT22;12071;50.850;4.446;2022-08-25T13:34:17;34.60;1.00
23783;DHT22;12071;50.850;4.446;2022-08-25T13:36:45;34.50;1.00
23783;DHT22;12071;50.850;4.446;2022-08-25T13:39:30;34.80;2.40
23783;DHT22;12071;50.850;4.446;2022-08-25T13:41:59;35.10;11.00
23783;DHT22;12071;50.850;4.446;2022-08-25T13:44:28;36.60;1.00
23783;DHT22;12071;50.850;4.446;2022-08-25T13:47:16;38.10;1.00
23783;DHT22;12071;50.850;4.446;2022-08-25T13:49:45;40.00;1.00
23783;DHT22;12071;50.850;4.446;2022-08-25T13:52:25;41.10;1.00
23783;DHT22;12071;50.850;4.446;2022-08-25T13:54:56;41.40;1.00
23783;DHT22;12071;50.850;4.446;2022-08-25T13:57:26;40.80;1.00
23783;DHT22;12071;50.850;4.446;2022-08-25T13:59:56;40.50;1.00
23783;DHT22;12071;50.850;4.446;2022-08-25T14:02:49;41.00;1.00
23783;DHT22;12071;50.850;4.446;2022-08-25T14:05:38;40.80;1.00
23783;DHT22;12071;50.850;4.446;2022-08-25T14:08:23;42.00;1.00
23783;DHT22;12071;50.850;4.446;2022-08-25T14:11:08;42.10;1.00
23783;DHT22;12071;50.850;4.446;2022-08-25T14:13:34;41.70;1.00
23783;DHT22;12071;50.850;4.446;2022-08-25T14:16:17;40.50;1.00
23783;DHT22;12071;50.850;4.446;2022-08-25T14:19:02;38.20;1.00
23783;DHT22;12071;50.850;4.446;2022-08-25T14:21:30;35.50;16.10
23783;DHT22;12071;50.850;4.446;2022-08-25T14:23:57;35.10;99.90
23783;DHT22;12071;50.850;4.446;2022-08-25T14:26:24;34.70;1.00
23783;DHT22;12071;50.850;4.446;2022-08-25T14:28:49;34.20;99.90
23783;DHT22;12071;50.850;4.446;2022-08-25T14:31:25;33.70;99.90
23783;DHT22;12071;50.850;4.446;2022-08-25T14:34:08;33.30;1.00
23783;DHT22;12071;50.850;4.446;2022-08-25T14:36:35;33.70;99.90
23783;DHT22;12071;50.850;4.446;2022-08-25T14:39:02;33.90;99.90
23783;DHT22;12071;50.850;4.446;2022-08-25T14:41:31;33.90;99.90
23783;DHT22;12071;50.850;4.446;2022-08-25T14:43:58;33.80;99.90
23783;DHT22;12071;50.850;4.446;2022-08-25T14:46:26;34.80;99.90
23783;DHT22;12071;50.850;4.446;2022-08-25T14:48:55;34.70;99.90
23783;DHT22;12071;50.850;4.446;2022-08-25T14:51:23;34.60;99.90
23783;DHT22;12071;50.850;4.446;2022-08-25T14:53:51;34.30;99.90
23783;DHT22;12071;50.850;4.446;2022-08-25T14:56:18;35.70;99.90
23783;DHT22;12071;50.850;4.446;2022-08-25T14:58:43;35.60;99.90
23783;DHT22;12071;50.850;4.446;2022-08-25T15:01:13;35.70;99.90
23783;DHT22;12071;50.850;4.446;2022-08-25T15:03:44;35.90;99.90
23783;DHT22;12071;50.850;4.446;2022-08-25T15:06:11;35.20;99.90
23783;DHT22;12071;50.850;4.446;2022-08-25T15:08:37;35.10;99.90
23783;DHT22;12071;50.850;4.446;2022-08-25T15:11:21;35.60;99.90
23783;DHT22;12071;50.850;4.446;2022-08-25T15:13:47;36.40;98.90
23783;DHT22;12071;50.850;4.446;2022-08-25T15:16:26;37.10;76.60
23783;DHT22;12071;50.850;4.446;2022-08-25T15:18:51;37.00;37.50
23783;DHT22;12071;50.850;4.446;2022-08-25T15:21:17;37.30;22.70
23783;DHT22;12071;50.850;4.446;2022-08-25T15:23:43;38.20;13.30
23783;DHT22;12071;50.850;4.446;2022-08-25T15:26:11;36.40;36.30
23783;DHT22;12071;50.850;4.446;2022-08-25T15:28:40;36.00;99.90
23783;DHT22;12071;50.850;4.446;2022-08-25T15:31:07;36.40;99.90
23783;DHT22;12071;50.850;4.446;2022-08-25T15:33:32;36.10;99.90
23783;DHT22;12071;50.850;4.446;2022-08-25T15:35:58;36.50;99.90
23783;DHT22;12071;50.850;4.446;2022-08-25T15:38:23;35.50;99.90
23783;DHT22;12071;50.850;4.446;2022-08-25T15:40:49;34.60;95.90
23783;DHT22;12071;50.850;4.446;2022-08-25T15:43:15;35.10;48.80
23783;DHT22;12071;50.850;4.446;2022-08-25T15:45:41;34.30;99.90
23783;DHT22;12071;50.850;4.446;2022-08-25T15:48:06;34.00;13.50
23783;DHT22;12071;50.850;4.446;2022-08-25T15:50:32;34.00;99.90
23783;DHT22;12071;50.850;4.446;2022-08-25T15:52:58;34.50;1.00
23783;DHT22;12071;50.850;4.446;2022-08-25T15:55:24;34.10;2.90
23783;DHT22;12071;50.850;4.446;2022-08-25T15:57:49;33.60;99.90
23783;DHT22;12071;50.850;4.446;2022-08-25T16:00:15;33.00;1.00
23783;DHT22;12071;50.850;4.446;2022-08-25T16:02:41;32.30;42.90
23783;DHT22;12071;50.850;4.446;2022-08-25T16:05:08;32.20;99.90
23783;DHT22;12071;50.850;4.446;2022-08-25T16:07:35;32.40;99.90
23783;DHT22;12071;50.850;4.446;2022-08-25T16:10:01;32.50;7.60
23783;DHT22;12071;50.850;4.446;2022-08-25T16:12:27;33.00;99.90
23783;DHT22;12071;50.850;4.446;2022-08-25T16:14:53;33.10;99.90
23783;DHT22;12071;50.850;4.446;2022-08-25T16:17:18;32.70;99.90
23783;DHT22;12071;50.850;4.446;2022-08-25T16:19:45;32.10;99.90
23783;DHT22;12071;50.850;4.446;2022-08-25T16:22:11;31.60;99.90
23783;DHT22;12071;50.850;4.446;2022-08-25T16:24:41;32.50;1.00
23783;DHT22;12071;50.850;4.446;2022-08-25T16:27:10;33.10;99.90
23783;DHT22;12071;50.850;4.446;2022-08-25T16:29:36;33.90;20.20
23783;DHT22;12071;50.850;4.446;2022-08-25T16:32:04;34.30;1.00
23783;DHT22;12071;50.850;4.446;2022-08-25T16:34:30;34.00;1.00
23783;DHT22;12071;50.850;4.446;2022-08-25T16:36:59;33.90;99.90
23783;DHT22;12071;50.850;4.446;2022-08-25T16:39:25;33.30;99.90
23783;DHT22;12071;50.850;4.446;2022-08-25T16:41:51;32.50;99.90
23783;DHT22;12071;50.850;4.446;2022-08-25T16:44:21;31.70;82.50
23783;DHT22;12071;50.850;4.446;2022-08-25T16:46:47;31.70;99.90
23783;DHT22;12071;50.850;4.446;2022-08-25T16:49:14;31.50;99.90
23783;DHT22;12071;50.850;4.446;2022-08-25T16:51:41;31.20;99.90
23783;DHT22;12071;50.850;4.446;2022-08-25T16:54:08;31.60;1.00
23783;DHT22;12071;50.850;4.446;2022-08-25T16:56:53;31.80;99.90
23783;DHT22;12071;50.850;4.446;2022-08-25T16:59:19;31.50;99.90
23783;DHT22;12071;50.850;4.446;2022-08-25T17:01:45;31.10;1.00
23783;DHT22;12071;50.850;4.446;2022-08-25T17:04:16;30.80;99.90
23783;DHT22;12071;50.850;4.446;2022-08-25T17:06:42;30.40;99.90
23783;DHT22;12071;50.850;4.446;2022-08-25T17:09:09;29.90;99.90
23783;DHT22;12071;50.850;4.446;2022-08-25T17:11:40;29.70;99.90
23783;DHT22;12071;50.850;4.446;2022-08-25T17:14:08;29.50;1.00
23783;DHT22;12071;50.850;4.446;2022-08-25T17:16:37;29.30;1.00
23783;DHT22;12071;50.850;4.446;2022-08-25T17:19:05;28.90;99.90
23783;DHT22;12071;50.850;4.446;2022-08-25T17:21:34;28.80;99.90
23783;DHT22;12071;50.850;4.446;2022-08-25T17:24:01;28.60;99.90
23783;DHT22;12071;50.850;4.446;2022-08-25T17:26:30;28.60;99.90
23783;DHT22;12071;50.850;4.446;2022-08-25T17:28:57;28.70;99.90